sensor_id;sensor_type;location;lat;lon;timestamp;P1;durP1;ratioP1;P2;durP2;ratioP2
8626;SDS011;4351;51.422;6.794;2024-03-06T00:00:44;30.87;;;18.47;;
8626;SDS011;4351;51.422;6.794;2024-03-06T00:03:13;28.50;;;17.63;;
8626;SDS011;4351;51.422;6.794;2024-03-06T00:05:41;30.83;;;18.10;;
8626;SDS011;4351;51.422;6.794;2024-03-06T00:08:08;32.90;;;18.37;;
8626;SDS011;4351;51.422;6.794;2024-03-06T00:10:36;29.53;;;18.53;;
8626;SDS011;4351;51.422;6.794;2024-03-06T00:13:04;30.97;;;17.20;;
8626;SDS011;4351;51.422;6.794;2024-03-06T00:15:32;31.30;;;17.60;;
8626;SDS011;4351;51.422;6.794;2024-03-06T00:18:00;29.17;;;16.97;;
8626;SDS011;4351;51.422;6.794;2024-03-06T00:20:30;30.77;;;18.03;;
8626;SDS011;4351;51.422;6.794;2024-03-06T00:22:58;31.53;;;18.67;;
8626;SDS011;4351;51.422;6.794;2024-03-06T00:25:26;29.40;;;17.20;;
8626;SDS011;4351;51.422;6.794;2024-03-06T00:27:54;30.93;;;18.90;;
8626;SDS011;4351;51.422;6.794;2024-03-06T00:30:21;30.73;;;19.13;;
8626;SDS011;4351;51.422;6.794;2024-03-06T00:32:49;35.30;;;18.73;;
8626;SDS011;4351;51.422;6.794;2024-03-06T00:35:17;33.70;;;18.63;;
8626;SDS011;4351;51.422;6.794;2024-03-06T00:37:47;33.73;;;19.80;;
8626;SDS011;4351;51.422;6.794;2024-03-06T00:40:15;30.93;;;18.93;;
8626;SDS011;4351;51.422;6.794;2024-03-06T00:42:42;31.73;;;19.20;;
8626;SDS011;4351;51.422;6.794;2024-03-06T00:45:10;32.70;;;18.97;;
8626;SDS011;4351;51.422;6.794;2024-03-06T00:47:38;34.80;;;20.67;;
8626;SDS011;4351;51.422;6.794;2024-03-06T00:50:06;31.60;;;20.47;;
8626;SDS011;4351;51.422;6.794;2024-03-06T00:52:34;36.37;;;21.83;;
8626;SDS011;4351;51.422;6.794;2024-03-06T00:55:03;36.57;;;22.20;;
8626;SDS011;4351;51.422;6.794;2024-03-06T00:57:31;29.93;;;19.17;;
8626;SDS011;4351;51.422;6.794;2024-03-06T00:59:59;33.13;;;20.43;;
8626;SDS011;4351;51.422;6.794;2024-03-06T01:02:27;29.80;;;18.07;;
8626;SDS011;4351;51.422;6.794;2024-03-06T01:04:54;28.90;;;18.13;;
8626;SDS011;4351;51.422;6.794;2024-03-06T01:07:23;28.63;;;17.43;;
8626;SDS011;4351;51.422;6.794;2024-03-06T01:09:50;32.83;;;18.07;;
8626;SDS011;4351;51.422;6.794;2024-03-06T01:12:20;32.63;;;20.40;;
8626;SDS011;4351;51.422;6.794;2024-03-06T01:14:47;29.37;;;18.27;;
8626;SDS011;4351;51.422;6.794;2024-03-06T01:17:15;33.07;;;19.87;;
8626;SDS011;4351;51.422;6.794;2024-03-06T01:19:43;33.87;;;19.97;;
8626;SDS011;4351;51.422;6.794;2024-03-06T01:22:10;31.43;;;18.20;;
8626;SDS011;4351;51.422;6.794;2024-03-06T01:24:39;35.93;;;20.37;;
8626;SDS011;4351;51.422;6.794;2024-03-06T01:27:07;33.37;;;19.57;;
8626;SDS011;4351;51.422;6.794;2024-03-06T01:29:36;38.87;;;21.57;;
8626;SDS011;4351;51.422;6.794;2024-03-06T01:32:04;34.93;;;20.10;;
8626;SDS011;4351;51.422;6.794;2024-03-06T01:34:31;33.70;;;19.57;;
8626;SDS011;4351;51.422;6.794;2024-03-06T01:36:59;32.00;;;19.07;;
8626;SDS011;4351;51.422;6.794;2024-03-06T01:39:27;36.13;;;21.20;;
8626;SDS011;4351;51.422;6.794;2024-03-06T01:41:54;34.83;;;20.40;;
8626;SDS011;4351;51.422;6.794;2024-03-06T01:44:22;33.60;;;20.83;;
8626;SDS011;4351;51.422;6.794;2024-03-06T01:46:51;35.23;;;19.93;;
8626;SDS011;4351;51.422;6.794;2024-03-06T01:49:19;33.40;;;20.20;;
8626;SDS011;4351;51.422;6.794;2024-03-06T01:52:01;32.93;;;19.77;;
8626;SDS011;4351;51.422;6.794;2024-03-06T01:54:30;36.40;;;21.33;;
8626;SDS011;4351;51.422;6.794;2024-03-06T01:56:58;35.93;;;20.50;;
8626;SDS011;4351;51.422;6.794;2024-03-06T01:59:28;30.93;;;19.87;;
8626;SDS011;4351;51.422;6.794;2024-03-06T02:02:04;36.27;;;21.27;;
8626;SDS011;4351;51.422;6.794;2024-03-06T02:04:34;31.60;;;18.80;;
8626;SDS011;4351;51.422;6.794;2024-03-06T02:07:02;31.23;;;18.77;;
8626;SDS011;4351;51.422;6.794;2024-03-06T02:09:29;34.13;;;19.87;;
8626;SDS011;4351;51.422;6.794;2024-03-06T02:11:57;34.33;;;19.63;;
8626;SDS011;4351;51.422;6.794;2024-03-06T02:14:24;33.53;;;18.90;;
8626;SDS011;4351;51.422;6.794;2024-03-06T02:16:53;30.03;;;19.07;;
8626;SDS011;4351;51.422;6.794;2024-03-06T02:19:22;33.73;;;20.60;;
8626;SDS011;4351;51.422;6.794;2024-03-06T02:21:51;37.10;;;21.93;;
8626;SDS011;4351;51.422;6.794;2024-03-06T02:24:19;34.93;;;21.40;;
8626;SDS011;4351;51.422;6.794;2024-03-06T02:26:47;31.00;;;19.93;;
8626;SDS011;4351;51.422;6.794;2024-03-06T02:29:15;36.50;;;21.63;;
8626;SDS011;4351;51.422;6.794;2024-03-06T02:31:42;36.20;;;20.80;;
8626;SDS011;4351;51.422;6.794;2024-03-06T02:34:10;33.63;;;20.43;;
8626;SDS011;4351;51.422;6.794;2024-03-06T02:36:37;35.67;;;21.37;;
8626;SDS011;4351;51.422;6.794;2024-03-06T02:39:07;37.57;;;21.47;;
8626;SDS011;4351;51.422;6.794;2024-03-06T02:41:36;33.00;;;21.30;;
8626;SDS011;4351;51.422;6.794;2024-03-06T02:44:03;28.70;;;18.90;;
8626;SDS011;4351;51.422;6.794;2024-03-06T02:46:31;30.97;;;20.17;;
8626;SDS011;4351;51.422;6.794;2024-03-06T02:49:00;29.97;;;19.33;;
8626;SDS011;4351;51.422;6.794;2024-03-06T02:51:28;37.17;;;20.87;;
8626;SDS011;4351;51.422;6.794;2024-03-06T02:53:55;33.43;;;19.73;;
8626;SDS011;4351;51.422;6.794;2024-03-06T02:56:24;33.20;;;20.27;;
8626;SDS011;4351;51.422;6.794;2024-03-06T02:58:52;32.27;;;19.97;;
8626;SDS011;4351;51.422;6.794;2024-03-06T03:01:21;33.77;;;19.63;;
8626;SDS011;4351;51.422;6.794;2024-03-06T03:03:50;33.20;;;19.70;;
8626;SDS011;4351;51.422;6.794;2024-03-06T03:06:18;31.30;;;19.37;;
8626;SDS011;4351;51.422;6.794;2024-03-06T03:08:46;35.77;;;20.53;;
8626;SDS011;4351;51.422;6.794;2024-03-06T03:11:14;32.30;;;19.93;;
8626;SDS011;4351;51.422;6.794;2024-03-06T03:13:43;32.57;;;19.50;;
8626;SDS011;4351;51.422;6.794;2024-03-06T03:16:15;32.43;;;20.10;;
8626;SDS011;4351;51.422;6.794;2024-03-06T03:18:44;31.13;;;19.93;;
8626;SDS011;4351;51.422;6.794;2024-03-06T03:21:12;31.97;;;19.63;;
8626;SDS011;4351;51.422;6.794;2024-03-06T03:23:40;34.30;;;20.40;;
8626;SDS011;4351;51.422;6.794;2024-03-06T03:26:07;27.80;;;18.53;;
8626;SDS011;4351;51.422;6.794;2024-03-06T03:28:37;30.67;;;19.50;;
8626;SDS011;4351;51.422;6.794;2024-03-06T03:31:07;35.33;;;20.67;;
8626;SDS011;4351;51.422;6.794;2024-03-06T03:33:35;31.47;;;19.37;;
8626;SDS011;4351;51.422;6.794;2024-03-06T03:36:04;33.77;;;20.20;;
8626;SDS011;4351;51.422;6.794;2024-03-06T03:38:33;30.40;;;18.60;;
8626;SDS011;4351;51.422;6.794;2024-03-06T03:41:02;36.20;;;20.03;;
8626;SDS011;4351;51.422;6.794;2024-03-06T03:43:31;32.50;;;19.63;;
8626;SDS011;4351;51.422;6.794;2024-03-06T03:45:59;31.87;;;19.30;;
8626;SDS011;4351;51.422;6.794;2024-03-06T03:48:28;33.00;;;18.90;;
8626;SDS011;4351;51.422;6.794;2024-03-06T03:50:56;27.97;;;17.47;;
8626;SDS011;4351;51.422;6.794;2024-03-06T03:53:24;31.33;;;18.70;;
8626;SDS011;4351;51.422;6.794;2024-03-06T03:55:51;32.73;;;18.93;;
8626;SDS011;4351;51.422;6.794;2024-03-06T03:58:19;31.57;;;18.97;;
8626;SDS011;4351;51.422;6.794;2024-03-06T04:00:46;33.27;;;19.30;;
8626;SDS011;4351;51.422;6.794;2024-03-06T04:03:14;33.90;;;19.20;;
8626;SDS011;4351;51.422;6.794;2024-03-06T04:05:43;34.23;;;20.07;;
8626;SDS011;4351;51.422;6.794;2024-03-06T04:08:11;31.00;;;19.43;;
8626;SDS011;4351;51.422;6.794;2024-03-06T04:10:39;36.30;;;20.03;;
8626;SDS011;4351;51.422;6.794;2024-03-06T04:13:07;33.00;;;19.53;;
8626;SDS011;4351;51.422;6.794;2024-03-06T04:15:35;32.60;;;19.23;;
8626;SDS011;4351;51.422;6.794;2024-03-06T04:18:03;36.13;;;19.87;;
8626;SDS011;4351;51.422;6.794;2024-03-06T04:20:31;34.77;;;20.80;;
8626;SDS011;4351;51.422;6.794;2024-03-06T04:23:00;37.73;;;20.83;;
8626;SDS011;4351;51.422;6.794;2024-03-06T04:25:28;35.17;;;20.60;;
8626;SDS011;4351;51.422;6.794;2024-03-06T04:27:56;35.23;;;19.80;;
8626;SDS011;4351;51.422;6.794;2024-03-06T04:30:23;38.17;;;21.97;;
8626;SDS011;4351;51.422;6.794;2024-03-06T04:32:51;35.47;;;21.07;;
8626;SDS011;4351;51.422;6.794;2024-03-06T04:35:19;36.70;;;21.00;;
8626;SDS011;4351;51.422;6.794;2024-03-06T04:37:46;37.10;;;21.40;;
8626;SDS011;4351;51.422;6.794;2024-03-06T04:40:16;35.97;;;21.77;;
8626;SDS011;4351;51.422;6.794;2024-03-06T04:42:45;37.33;;;20.63;;
8626;SDS011;4351;51.422;6.794;2024-03-06T04:45:14;36.07;;;21.27;;
8626;SDS011;4351;51.422;6.794;2024-03-06T04:47:42;38.47;;;22.13;;
8626;SDS011;4351;51.422;6.794;2024-03-06T04:50:10;36.00;;;21.87;;
8626;SDS011;4351;51.422;6.794;2024-03-06T04:52:38;36.30;;;21.00;;
8626;SDS011;4351;51.422;6.794;2024-03-06T04:55:06;39.00;;;22.23;;
8626;SDS011;4351;51.422;6.794;2024-03-06T04:57:37;38.33;;;22.70;;
8626;SDS011;4351;51.422;6.794;2024-03-06T05:00:07;39.57;;;22.90;;
8626;SDS011;4351;51.422;6.794;2024-03-06T05:02:35;43.43;;;23.57;;
8626;SDS011;4351;51.422;6.794;2024-03-06T05:05:21;40.07;;;24.40;;
8626;SDS011;4351;51.422;6.794;2024-03-06T05:08:06;42.37;;;23.93;;
8626;SDS011;4351;51.422;6.794;2024-03-06T05:10:53;44.37;;;23.30;;
8626;SDS011;4351;51.422;6.794;2024-03-06T05:13:39;45.40;;;26.53;;
8626;SDS011;4351;51.422;6.794;2024-03-06T05:16:24;46.50;;;27.60;;
8626;SDS011;4351;51.422;6.794;2024-03-06T05:19:10;46.83;;;26.33;;
8626;SDS011;4351;51.422;6.794;2024-03-06T05:21:55;45.23;;;26.00;;
8626;SDS011;4351;51.422;6.794;2024-03-06T05:24:41;44.27;;;26.77;;
8626;SDS011;4351;51.422;6.794;2024-03-06T05:27:27;45.47;;;26.37;;
8626;SDS011;4351;51.422;6.794;2024-03-06T05:30:14;42.50;;;25.77;;
8626;SDS011;4351;51.422;6.794;2024-03-06T05:32:59;43.93;;;27.00;;
8626;SDS011;4351;51.422;6.794;2024-03-06T05:35:43;44.13;;;26.17;;
8626;SDS011;4351;51.422;6.794;2024-03-06T05:38:29;47.60;;;25.37;;
8626;SDS011;4351;51.422;6.794;2024-03-06T05:41:14;42.07;;;24.87;;
8626;SDS011;4351;51.422;6.794;2024-03-06T05:44:01;44.07;;;25.73;;
8626;SDS011;4351;51.422;6.794;2024-03-06T05:46:49;45.90;;;25.43;;
8626;SDS011;4351;51.422;6.794;2024-03-06T05:49:34;41.47;;;23.77;;
8626;SDS011;4351;51.422;6.794;2024-03-06T05:52:20;42.27;;;23.27;;
8626;SDS011;4351;51.422;6.794;2024-03-06T05:55:05;41.00;;;23.53;;
8626;SDS011;4351;51.422;6.794;2024-03-06T05:57:51;42.27;;;23.47;;
8626;SDS011;4351;51.422;6.794;2024-03-06T06:00:34;43.90;;;25.40;;
8626;SDS011;4351;51.422;6.794;2024-03-06T06:03:03;39.57;;;23.63;;
8626;SDS011;4351;51.422;6.794;2024-03-06T06:05:31;36.03;;;23.27;;
8626;SDS011;4351;51.422;6.794;2024-03-06T06:07:58;40.17;;;23.43;;
8626;SDS011;4351;51.422;6.794;2024-03-06T06:10:26;39.23;;;23.43;;
8626;SDS011;4351;51.422;6.794;2024-03-06T06:12:54;39.03;;;23.00;;
8626;SDS011;4351;51.422;6.794;2024-03-06T06:15:21;38.13;;;23.43;;
8626;SDS011;4351;51.422;6.794;2024-03-06T06:17:49;41.00;;;22.80;;
8626;SDS011;4351;51.422;6.794;2024-03-06T06:20:19;43.93;;;25.80;;
8626;SDS011;4351;51.422;6.794;2024-03-06T06:22:47;42.90;;;24.43;;
8626;SDS011;4351;51.422;6.794;2024-03-06T06:25:14;42.37;;;23.53;;
8626;SDS011;4351;51.422;6.794;2024-03-06T06:27:43;45.10;;;26.33;;
8626;SDS011;4351;51.422;6.794;2024-03-06T06:30:10;42.70;;;27.33;;
8626;SDS011;4351;51.422;6.794;2024-03-06T06:32:39;47.63;;;26.50;;
8626;SDS011;4351;51.422;6.794;2024-03-06T06:35:08;41.37;;;23.23;;
8626;SDS011;4351;51.422;6.794;2024-03-06T06:37:39;40.47;;;23.23;;
8626;SDS011;4351;51.422;6.794;2024-03-06T06:40:07;39.43;;;22.83;;
8626;SDS011;4351;51.422;6.794;2024-03-06T06:42:36;41.20;;;23.87;;
8626;SDS011;4351;51.422;6.794;2024-03-06T06:45:04;44.17;;;24.93;;
8626;SDS011;4351;51.422;6.794;2024-03-06T06:47:33;48.90;;;25.47;;
8626;SDS011;4351;51.422;6.794;2024-03-06T06:50:01;45.33;;;24.73;;
8626;SDS011;4351;51.422;6.794;2024-03-06T06:52:32;50.43;;;26.57;;
8626;SDS011;4351;51.422;6.794;2024-03-06T06:55:01;49.83;;;26.57;;
8626;SDS011;4351;51.422;6.794;2024-03-06T06:57:29;42.20;;;23.80;;
8626;SDS011;4351;51.422;6.794;2024-03-06T06:59:57;44.43;;;25.60;;
8626;SDS011;4351;51.422;6.794;2024-03-06T07:02:25;45.20;;;25.70;;
8626;SDS011;4351;51.422;6.794;2024-03-06T07:04:54;50.07;;;25.57;;
8626;SDS011;4351;51.422;6.794;2024-03-06T07:07:22;43.57;;;24.77;;
8626;SDS011;4351;51.422;6.794;2024-03-06T07:09:50;46.27;;;26.23;;
8626;SDS011;4351;51.422;6.794;2024-03-06T07:12:19;44.80;;;24.63;;
8626;SDS011;4351;51.422;6.794;2024-03-06T07:14:48;47.77;;;26.03;;
8626;SDS011;4351;51.422;6.794;2024-03-06T07:17:16;48.17;;;25.53;;
8626;SDS011;4351;51.422;6.794;2024-03-06T07:19:44;47.87;;;26.73;;
8626;SDS011;4351;51.422;6.794;2024-03-06T07:22:12;46.43;;;26.00;;
8626;SDS011;4351;51.422;6.794;2024-03-06T07:24:40;52.43;;;27.90;;
8626;SDS011;4351;51.422;6.794;2024-03-06T07:27:07;48.07;;;26.80;;
8626;SDS011;4351;51.422;6.794;2024-03-06T07:29:37;51.90;;;27.00;;
8626;SDS011;4351;51.422;6.794;2024-03-06T07:32:05;49.67;;;27.63;;
8626;SDS011;4351;51.422;6.794;2024-03-06T07:34:33;56.33;;;28.00;;
8626;SDS011;4351;51.422;6.794;2024-03-06T07:37:01;53.90;;;28.60;;
8626;SDS011;4351;51.422;6.794;2024-03-06T07:39:31;49.23;;;27.73;;
8626;SDS011;4351;51.422;6.794;2024-03-06T07:42:00;47.73;;;26.73;;
8626;SDS011;4351;51.422;6.794;2024-03-06T07:44:28;53.23;;;28.07;;
8626;SDS011;4351;51.422;6.794;2024-03-06T07:46:58;52.70;;;28.37;;
8626;SDS011;4351;51.422;6.794;2024-03-06T07:49:26;53.60;;;28.20;;
8626;SDS011;4351;51.422;6.794;2024-03-06T07:51:53;50.73;;;28.13;;
8626;SDS011;4351;51.422;6.794;2024-03-06T07:54:21;48.23;;;27.13;;
8626;SDS011;4351;51.422;6.794;2024-03-06T07:56:48;53.47;;;26.93;;
8626;SDS011;4351;51.422;6.794;2024-03-06T07:59:16;49.23;;;27.20;;
8626;SDS011;4351;51.422;6.794;2024-03-06T08:01:44;49.47;;;27.77;;
8626;SDS011;4351;51.422;6.794;2024-03-06T08:04:14;48.87;;;26.27;;
8626;SDS011;4351;51.422;6.794;2024-03-06T08:06:41;50.03;;;27.73;;
8626;SDS011;4351;51.422;6.794;2024-03-06T08:09:09;54.03;;;28.93;;
8626;SDS011;4351;51.422;6.794;2024-03-06T08:11:37;52.27;;;27.73;;
8626;SDS011;4351;51.422;6.794;2024-03-06T08:14:05;50.83;;;28.13;;
8626;SDS011;4351;51.422;6.794;2024-03-06T08:16:33;50.90;;;28.67;;
8626;SDS011;4351;51.422;6.794;2024-03-06T08:19:02;57.70;;;30.70;;
8626;SDS011;4351;51.422;6.794;2024-03-06T08:21:32;58.67;;;30.97;;
8626;SDS011;4351;51.422;6.794;2024-03-06T08:23:59;54.70;;;30.10;;
8626;SDS011;4351;51.422;6.794;2024-03-06T08:26:27;58.73;;;31.10;;
8626;SDS011;4351;51.422;6.794;2024-03-06T08:28:55;55.30;;;29.93;;
8626;SDS011;4351;51.422;6.794;2024-03-06T08:31:23;53.00;;;29.73;;
8626;SDS011;4351;51.422;6.794;2024-03-06T08:33:51;55.17;;;29.23;;
8626;SDS011;4351;51.422;6.794;2024-03-06T08:36:19;60.27;;;31.03;;
8626;SDS011;4351;51.422;6.794;2024-03-06T08:38:48;54.73;;;29.60;;
8626;SDS011;4351;51.422;6.794;2024-03-06T08:41:18;53.33;;;27.73;;
8626;SDS011;4351;51.422;6.794;2024-03-06T08:43:46;57.17;;;29.50;;
8626;SDS011;4351;51.422;6.794;2024-03-06T08:46:14;51.37;;;27.83;;
8626;SDS011;4351;51.422;6.794;2024-03-06T08:48:42;53.27;;;27.97;;
8626;SDS011;4351;51.422;6.794;2024-03-06T08:51:10;56.53;;;29.30;;
8626;SDS011;4351;51.422;6.794;2024-03-06T08:53:38;49.47;;;26.73;;
8626;SDS011;4351;51.422;6.794;2024-03-06T08:56:07;52.00;;;27.80;;
8626;SDS011;4351;51.422;6.794;2024-03-06T08:58:35;48.67;;;25.43;;
8626;SDS011;4351;51.422;6.794;2024-03-06T09:01:03;51.97;;;29.13;;
8626;SDS011;4351;51.422;6.794;2024-03-06T09:03:31;52.30;;;27.87;;
8626;SDS011;4351;51.422;6.794;2024-03-06T09:05:59;55.90;;;29.50;;
8626;SDS011;4351;51.422;6.794;2024-03-06T09:08:27;52.17;;;29.07;;
8626;SDS011;4351;51.422;6.794;2024-03-06T09:10:54;53.87;;;28.73;;
8626;SDS011;4351;51.422;6.794;2024-03-06T09:13:26;58.23;;;30.47;;
8626;SDS011;4351;51.422;6.794;2024-03-06T09:15:54;48.13;;;26.67;;
8626;SDS011;4351;51.422;6.794;2024-03-06T09:18:22;54.57;;;29.03;;
8626;SDS011;4351;51.422;6.794;2024-03-06T09:20:50;50.90;;;28.00;;
8626;SDS011;4351;51.422;6.794;2024-03-06T09:23:17;54.30;;;28.53;;
8626;SDS011;4351;51.422;6.794;2024-03-06T09:25:45;53.47;;;29.47;;
8626;SDS011;4351;51.422;6.794;2024-03-06T09:28:14;53.50;;;28.97;;
8626;SDS011;4351;51.422;6.794;2024-03-06T09:30:44;53.93;;;29.43;;
8626;SDS011;4351;51.422;6.794;2024-03-06T09:33:12;54.37;;;29.27;;
8626;SDS011;4351;51.422;6.794;2024-03-06T09:35:40;56.33;;;30.03;;
8626;SDS011;4351;51.422;6.794;2024-03-06T09:38:11;53.50;;;29.33;;
8626;SDS011;4351;51.422;6.794;2024-03-06T09:40:42;55.33;;;28.93;;
8626;SDS011;4351;51.422;6.794;2024-03-06T09:43:10;50.97;;;28.83;;
8626;SDS011;4351;51.422;6.794;2024-03-06T09:45:38;50.77;;;29.00;;
8626;SDS011;4351;51.422;6.794;2024-03-06T09:48:07;49.80;;;27.73;;
8626;SDS011;4351;51.422;6.794;2024-03-06T09:50:36;47.80;;;26.13;;
8626;SDS011;4351;51.422;6.794;2024-03-06T09:53:08;47.50;;;27.33;;
8626;SDS011;4351;51.422;6.794;2024-03-06T09:55:37;48.63;;;28.37;;
8626;SDS011;4351;51.422;6.794;2024-03-06T09:58:05;50.83;;;28.67;;
8626;SDS011;4351;51.422;6.794;2024-03-06T10:00:34;47.33;;;28.13;;
8626;SDS011;4351;51.422;6.794;2024-03-06T10:03:02;49.33;;;28.30;;
8626;SDS011;4351;51.422;6.794;2024-03-06T10:05:33;48.03;;;27.63;;
8626;SDS011;4351;51.422;6.794;2024-03-06T10:08:01;45.43;;;26.23;;
8626;SDS011;4351;51.422;6.794;2024-03-06T10:10:30;47.07;;;25.80;;
8626;SDS011;4351;51.422;6.794;2024-03-06T10:12:58;50.73;;;27.23;;
8626;SDS011;4351;51.422;6.794;2024-03-06T10:15:29;46.33;;;27.30;;
8626;SDS011;4351;51.422;6.794;2024-03-06T10:18:13;45.93;;;26.77;;
8626;SDS011;4351;51.422;6.794;2024-03-06T10:20:42;48.67;;;27.87;;
8626;SDS011;4351;51.422;6.794;2024-03-06T10:23:11;48.43;;;27.90;;
8626;SDS011;4351;51.422;6.794;2024-03-06T10:25:39;49.03;;;29.27;;
8626;SDS011;4351;51.422;6.794;2024-03-06T10:28:07;57.13;;;30.67;;
8626;SDS011;4351;51.422;6.794;2024-03-06T10:30:36;55.53;;;30.57;;
8626;SDS011;4351;51.422;6.794;2024-03-06T10:33:04;51.60;;;30.23;;
8626;SDS011;4351;51.422;6.794;2024-03-06T10:35:32;52.47;;;29.27;;
8626;SDS011;4351;51.422;6.794;2024-03-06T10:38:02;51.07;;;29.37;;
8626;SDS011;4351;51.422;6.794;2024-03-06T10:40:30;51.80;;;29.10;;
8626;SDS011;4351;51.422;6.794;2024-03-06T10:42:59;51.53;;;28.33;;
8626;SDS011;4351;51.422;6.794;2024-03-06T10:45:29;52.20;;;28.93;;
8626;SDS011;4351;51.422;6.794;2024-03-06T10:47:59;54.03;;;30.33;;
8626;SDS011;4351;51.422;6.794;2024-03-06T10:50:30;53.23;;;28.10;;
8626;SDS011;4351;51.422;6.794;2024-03-06T10:52:58;55.03;;;30.00;;
8626;SDS011;4351;51.422;6.794;2024-03-06T10:55:28;49.80;;;28.33;;
8626;SDS011;4351;51.422;6.794;2024-03-06T10:58:00;58.97;;;30.90;;
8626;SDS011;4351;51.422;6.794;2024-03-06T11:00:28;55.90;;;29.77;;
8626;SDS011;4351;51.422;6.794;2024-03-06T11:02:56;53.70;;;29.03;;
8626;SDS011;4351;51.422;6.794;2024-03-06T11:05:25;58.60;;;29.83;;
8626;SDS011;4351;51.422;6.794;2024-03-06T11:07:53;49.77;;;29.33;;
8626;SDS011;4351;51.422;6.794;2024-03-06T11:10:33;51.37;;;29.17;;
8626;SDS011;4351;51.422;6.794;2024-03-06T11:13:01;47.30;;;28.67;;
8626;SDS011;4351;51.422;6.794;2024-03-06T11:15:29;46.90;;;28.13;;
8626;SDS011;4351;51.422;6.794;2024-03-06T11:17:57;52.53;;;29.87;;
8626;SDS011;4351;51.422;6.794;2024-03-06T11:20:32;48.93;;;28.10;;
8626;SDS011;4351;51.422;6.794;2024-03-06T11:23:04;50.53;;;29.43;;
8626;SDS011;4351;51.422;6.794;2024-03-06T11:25:57;48.77;;;29.30;;
8626;SDS011;4351;51.422;6.794;2024-03-06T11:28:26;46.50;;;28.30;;
8626;SDS011;4351;51.422;6.794;2024-03-06T11:30:57;46.43;;;26.63;;
8626;SDS011;4351;51.422;6.794;2024-03-06T11:33:34;47.93;;;29.30;;
8626;SDS011;4351;51.422;6.794;2024-03-06T11:36:16;51.77;;;28.57;;
8626;SDS011;4351;51.422;6.794;2024-03-06T11:38:50;43.33;;;25.70;;
8626;SDS011;4351;51.422;6.794;2024-03-06T11:41:21;45.63;;;27.57;;
8626;SDS011;4351;51.422;6.794;2024-03-06T11:43:51;46.47;;;27.60;;
8626;SDS011;4351;51.422;6.794;2024-03-06T11:46:20;49.30;;;28.93;;
8626;SDS011;4351;51.422;6.794;2024-03-06T11:48:51;43.23;;;26.93;;
8626;SDS011;4351;51.422;6.794;2024-03-06T11:51:19;50.57;;;28.10;;
8626;SDS011;4351;51.422;6.794;2024-03-06T11:53:49;45.37;;;27.53;;
8626;SDS011;4351;51.422;6.794;2024-03-06T11:56:17;46.00;;;26.57;;
8626;SDS011;4351;51.422;6.794;2024-03-06T11:58:46;43.40;;;25.83;;
8626;SDS011;4351;51.422;6.794;2024-03-06T12:01:15;57.90;;;28.17;;
8626;SDS011;4351;51.422;6.794;2024-03-06T12:03:45;45.50;;;26.07;;
8626;SDS011;4351;51.422;6.794;2024-03-06T12:06:14;48.53;;;27.27;;
8626;SDS011;4351;51.422;6.794;2024-03-06T12:08:43;44.97;;;27.23;;
8626;SDS011;4351;51.422;6.794;2024-03-06T12:11:11;46.00;;;26.20;;
8626;SDS011;4351;51.422;6.794;2024-03-06T12:13:41;41.93;;;25.47;;
8626;SDS011;4351;51.422;6.794;2024-03-06T12:16:10;48.70;;;26.23;;
8626;SDS011;4351;51.422;6.794;2024-03-06T12:18:38;40.30;;;24.47;;
8626;SDS011;4351;51.422;6.794;2024-03-06T12:21:05;40.33;;;23.87;;
8626;SDS011;4351;51.422;6.794;2024-03-06T12:23:34;45.47;;;26.23;;
8626;SDS011;4351;51.422;6.794;2024-03-06T12:26:05;42.33;;;25.20;;
8626;SDS011;4351;51.422;6.794;2024-03-06T12:28:33;40.23;;;23.93;;
8626;SDS011;4351;51.422;6.794;2024-03-06T12:31:01;39.90;;;23.77;;
8626;SDS011;4351;51.422;6.794;2024-03-06T12:33:31;37.43;;;22.90;;
8626;SDS011;4351;51.422;6.794;2024-03-06T12:36:01;38.37;;;23.13;;
8626;SDS011;4351;51.422;6.794;2024-03-06T12:38:29;41.20;;;24.40;;
8626;SDS011;4351;51.422;6.794;2024-03-06T12:40:57;39.37;;;22.80;;
8626;SDS011;4351;51.422;6.794;2024-03-06T12:43:25;35.27;;;22.57;;
8626;SDS011;4351;51.422;6.794;2024-03-06T12:45:53;39.90;;;23.20;;
8626;SDS011;4351;51.422;6.794;2024-03-06T12:48:21;35.10;;;21.93;;
8626;SDS011;4351;51.422;6.794;2024-03-06T12:50:50;34.33;;;22.13;;
8626;SDS011;4351;51.422;6.794;2024-03-06T12:53:20;36.03;;;21.50;;
8626;SDS011;4351;51.422;6.794;2024-03-06T12:55:48;39.33;;;21.17;;
8626;SDS011;4351;51.422;6.794;2024-03-06T12:58:16;34.37;;;19.67;;
8626;SDS011;4351;51.422;6.794;2024-03-06T13:00:43;31.37;;;19.47;;
8626;SDS011;4351;51.422;6.794;2024-03-06T13:03:11;29.63;;;19.03;;
8626;SDS011;4351;51.422;6.794;2024-03-06T13:05:39;30.73;;;16.80;;
8626;SDS011;4351;51.422;6.794;2024-03-06T13:08:08;26.43;;;15.63;;
8626;SDS011;4351;51.422;6.794;2024-03-06T13:10:36;25.63;;;15.70;;
8626;SDS011;4351;51.422;6.794;2024-03-06T13:13:04;23.07;;;14.93;;
8626;SDS011;4351;51.422;6.794;2024-03-06T13:15:33;21.73;;;13.50;;
8626;SDS011;4351;51.422;6.794;2024-03-06T13:18:01;24.50;;;14.73;;
8626;SDS011;4351;51.422;6.794;2024-03-06T13:20:30;19.20;;;12.10;;
8626;SDS011;4351;51.422;6.794;2024-03-06T13:22:57;17.87;;;12.10;;
8626;SDS011;4351;51.422;6.794;2024-03-06T13:25:26;19.63;;;12.67;;
8626;SDS011;4351;51.422;6.794;2024-03-06T13:27:55;17.97;;;12.27;;
8626;SDS011;4351;51.422;6.794;2024-03-06T13:30:22;18.53;;;12.10;;
8626;SDS011;4351;51.422;6.794;2024-03-06T13:32:50;19.70;;;12.00;;
8626;SDS011;4351;51.422;6.794;2024-03-06T13:35:18;20.57;;;12.20;;
8626;SDS011;4351;51.422;6.794;2024-03-06T13:37:46;19.70;;;12.20;;
8626;SDS011;4351;51.422;6.794;2024-03-06T13:40:15;18.40;;;12.03;;
8626;SDS011;4351;51.422;6.794;2024-03-06T13:42:44;21.57;;;11.67;;
8626;SDS011;4351;51.422;6.794;2024-03-06T13:45:12;17.90;;;11.13;;
8626;SDS011;4351;51.422;6.794;2024-03-06T13:47:41;17.70;;;11.33;;
8626;SDS011;4351;51.422;6.794;2024-03-06T13:50:10;17.43;;;11.13;;
8626;SDS011;4351;51.422;6.794;2024-03-06T13:52:38;18.47;;;12.53;;
8626;SDS011;4351;51.422;6.794;2024-03-06T13:55:06;19.43;;;12.87;;
8626;SDS011;4351;51.422;6.794;2024-03-06T13:57:34;15.80;;;10.97;;
8626;SDS011;4351;51.422;6.794;2024-03-06T14:00:05;20.50;;;13.47;;
8626;SDS011;4351;51.422;6.794;2024-03-06T14:02:38;20.50;;;13.30;;
8626;SDS011;4351;51.422;6.794;2024-03-06T14:05:07;21.87;;;12.97;;
8626;SDS011;4351;51.422;6.794;2024-03-06T14:07:34;20.50;;;12.80;;
8626;SDS011;4351;51.422;6.794;2024-03-06T14:10:03;17.90;;;12.13;;
8626;SDS011;4351;51.422;6.794;2024-03-06T14:12:32;19.20;;;12.10;;
8626;SDS011;4351;51.422;6.794;2024-03-06T14:14:59;16.77;;;11.20;;
8626;SDS011;4351;51.422;6.794;2024-03-06T14:17:29;17.47;;;12.00;;
8626;SDS011;4351;51.422;6.794;2024-03-06T14:19:56;17.33;;;11.87;;
8626;SDS011;4351;51.422;6.794;2024-03-06T14:22:24;18.70;;;11.87;;
8626;SDS011;4351;51.422;6.794;2024-03-06T14:24:52;17.30;;;10.77;;
8626;SDS011;4351;51.422;6.794;2024-03-06T14:27:20;19.73;;;11.73;;
8626;SDS011;4351;51.422;6.794;2024-03-06T14:29:48;18.43;;;12.20;;
8626;SDS011;4351;51.422;6.794;2024-03-06T14:32:18;17.60;;;11.80;;
8626;SDS011;4351;51.422;6.794;2024-03-06T14:34:47;17.57;;;10.90;;
8626;SDS011;4351;51.422;6.794;2024-03-06T14:37:17;15.40;;;10.20;;
8626;SDS011;4351;51.422;6.794;2024-03-06T14:39:44;18.27;;;11.40;;
8626;SDS011;4351;51.422;6.794;2024-03-06T14:42:12;15.77;;;10.67;;
8626;SDS011;4351;51.422;6.794;2024-03-06T14:44:41;13.20;;;9.53;;
8626;SDS011;4351;51.422;6.794;2024-03-06T14:47:11;16.53;;;10.47;;
8626;SDS011;4351;51.422;6.794;2024-03-06T14:49:39;17.23;;;11.73;;
8626;SDS011;4351;51.422;6.794;2024-03-06T14:52:08;17.27;;;10.93;;
8626;SDS011;4351;51.422;6.794;2024-03-06T14:54:36;16.30;;;10.90;;
8626;SDS011;4351;51.422;6.794;2024-03-06T14:57:08;18.33;;;11.60;;
8626;SDS011;4351;51.422;6.794;2024-03-06T14:59:38;17.00;;;11.60;;
8626;SDS011;4351;51.422;6.794;2024-03-06T15:02:06;17.17;;;11.20;;